Sao Paulo do Potengi, Brazil
Current Conditions -  °F | °C
As of 2:00 PM on Monday 24 Nov 2014 (Local Time) from SBNT Reporting Station
Scattered Clouds Scattered Clouds  
Wind Chill: 86°   Ceiling: Unl
Heat Index: 90°   Visibility: 6mi
Dew Point: 70°   Wind: 17mph
Humidity: 58%   Direction: 130°SE
Pressure: 29.88"   Gusts: NA
Location:  5.9°S, 35.76°W
Report Text: SBNT 241700Z 13015KT 9999 SCT027 30/21 Q1012
Loading
Personal Weather Stations






























Interactive Weather Map New forecast layout! Learn more

10-Day Weather Forecast

Advertisements
Track Severe Weather on mobile